createdAt,value
2023-04-20T00:01:48.828Z,100851.31
2023-04-20T00:04:16.262Z,100851.38
2023-04-20T00:06:45.042Z,100860.00
2023-04-20T00:09:13.984Z,100856.53
2023-04-20T00:11:41.275Z,100854.03
2023-04-20T00:14:08.628Z,100851.47
2023-04-20T00:16:35.672Z,100854.91
2023-04-20T00:19:03.028Z,100856.59
2023-04-20T00:21:30.108Z,100858.31
2023-04-20T00:23:57.139Z,100858.22
2023-04-20T00:26:24.258Z,100854.75
2023-04-20T00:28:53.972Z,100861.63
2023-04-20T00:31:21.285Z,100853.88
2023-04-20T00:33:48.949Z,100851.25
2023-04-20T00:36:16.007Z,100852.94
2023-04-20T00:38:43.049Z,100858.13
2023-04-20T00:41:10.084Z,100853.84
2023-04-20T00:43:37.809Z,100850.38
2023-04-20T00:46:06.541Z,100862.38
2023-04-20T00:48:33.616Z,100856.34
2023-04-20T00:51:02.510Z,100852.88
2023-04-20T00:53:32.484Z,100857.16
2023-04-20T00:55:59.788Z,100854.56
2023-04-20T00:58:27.017Z,100857.09
2023-04-20T01:00:54.158Z,100849.41
2023-04-20T01:03:21.491Z,100840.75
2023-04-20T01:05:48.950Z,100858.06
2023-04-20T01:08:16.132Z,100839.13
2023-04-20T01:10:43.198Z,100846.00
2023-04-20T01:13:10.448Z,100858.13
2023-04-20T01:15:37.507Z,100853.88
2023-04-20T01:18:06.086Z,100847.88
2023-04-20T01:20:33.387Z,100852.22
2023-04-20T01:23:01.063Z,100847.94
2023-04-20T01:25:28.120Z,100843.59
2023-04-20T01:27:55.158Z,100844.53
2023-04-20T01:30:22.698Z,100842.88
2023-04-20T01:32:49.985Z,100846.31
2023-04-20T01:35:17.076Z,100844.59
2023-04-20T01:37:45.215Z,100852.34
2023-04-20T01:40:13.506Z,100853.22
2023-04-20T01:42:41.034Z,100848.06
2023-04-20T01:45:08.947Z,100834.25
2023-04-20T01:47:37.177Z,100844.63
2023-04-20T01:50:04.443Z,100842.94
2023-04-20T01:52:31.633Z,100844.66
2023-04-20T01:54:58.650Z,100842.94
2023-04-20T01:57:25.860Z,100847.28
2023-04-20T01:59:52.876Z,100850.75
2023-04-20T02:02:19.964Z,100841.28
2023-04-20T02:04:47.160Z,100855.09
2023-04-20T02:07:14.218Z,100846.53
2023-04-20T02:09:41.191Z,100844.84
2023-04-20T02:12:10.134Z,100848.31
2023-04-20T02:14:39.718Z,100848.31
2023-04-20T02:17:10.772Z,100846.56
2023-04-20T02:19:38.059Z,100855.22
2023-04-20T02:22:05.185Z,100850.06
2023-04-20T02:24:32.627Z,100848.38
2023-04-20T02:26:59.648Z,100844.94
2023-04-20T02:29:26.706Z,100844.94
2023-04-20T02:31:53.762Z,100853.56
2023-04-20T02:34:22.233Z,100846.66
2023-04-20T02:36:49.506Z,100846.72
2023-04-20T02:39:16.783Z,100843.28
2023-04-20T02:41:44.236Z,100850.16
2023-04-20T02:44:12.296Z,100839.81
2023-04-20T02:46:39.852Z,100841.50
2023-04-20T02:49:08.391Z,100853.56
2023-04-20T02:51:40.365Z,100846.69
2023-04-20T02:54:07.453Z,100844.94
2023-04-20T02:56:34.537Z,100843.25
2023-04-20T02:59:05.817Z,100846.66
2023-04-20T03:01:57.904Z,100851.84
2023-04-20T03:04:27.939Z,100848.38
2023-04-20T03:07:05.065Z,100855.31
2023-04-20T03:09:34.690Z,100851.00
2023-04-20T03:12:14.800Z,100855.31
2023-04-20T03:15:00.345Z,100860.50
2023-04-20T03:17:47.295Z,100859.63
2023-04-20T03:20:15.384Z,100858.75
2023-04-20T03:22:42.783Z,100860.53
2023-04-20T03:25:10.316Z,100851.03
2023-04-20T03:27:59.850Z,100857.09
2023-04-20T03:30:27.582Z,100855.38
2023-04-20T03:33:01.089Z,100862.22
2023-04-20T03:35:28.543Z,100862.22
2023-04-20T03:37:55.694Z,100860.50
2023-04-20T03:40:22.888Z,100858.75
2023-04-20T03:42:49.931Z,100857.84
2023-04-20T03:45:17.403Z,100862.16
2023-04-20T03:47:44.432Z,100861.19
2023-04-20T03:50:11.605Z,100857.75
2023-04-20T03:52:39.732Z,100866.34
2023-04-20T03:55:07.385Z,100856.81
2023-04-20T03:57:38.806Z,100865.44
2023-04-20T04:00:07.317Z,100867.16
2023-04-20T04:02:45.472Z,100876.63
2023-04-20T04:05:14.352Z,100863.78
2023-04-20T04:07:41.457Z,100874.09
2023-04-20T04:10:09.888Z,100866.31
2023-04-20T04:12:37.000Z,100868.97
2023-04-20T04:15:05.169Z,100869.81
2023-04-20T04:17:35.664Z,100871.59
2023-04-20T04:20:02.668Z,100868.16
2023-04-20T04:22:31.359Z,100877.63
2023-04-20T04:25:23.397Z,100869.03
2023-04-20T04:27:51.300Z,100875.88
2023-04-20T04:30:20.059Z,100875.00
2023-04-20T04:32:49.230Z,100875.03
2023-04-20T04:35:17.137Z,100879.31
2023-04-20T04:37:44.298Z,100877.63
2023-04-20T04:40:11.654Z,100881.09
2023-04-20T04:42:39.033Z,100877.66
2023-04-20T04:45:07.952Z,100882.91
2023-04-20T04:47:37.446Z,100883.00
2023-04-20T04:50:09.459Z,100885.63
2023-04-20T04:52:37.389Z,100881.38
2023-04-20T04:55:08.483Z,100876.25
2023-04-20T04:57:36.406Z,100879.78
2023-04-20T05:00:08.149Z,100885.00
2023-04-20T05:02:35.934Z,100885.06
2023-04-20T05:05:03.378Z,100891.97
2023-04-20T05:07:30.574Z,100885.16
2023-04-20T05:09:57.658Z,100889.59
2023-04-20T05:12:25.887Z,100890.50
2023-04-20T05:14:53.478Z,100884.53
2023-04-20T05:17:20.565Z,100890.59
2023-04-20T05:19:47.638Z,100888.00
2023-04-20T05:22:14.841Z,100883.75
2023-04-20T05:24:42.632Z,100891.50
2023-04-20T05:27:09.955Z,100889.78
2023-04-20T05:29:38.137Z,100895.81
2023-04-20T05:32:05.439Z,100895.84
2023-04-20T05:34:32.604Z,100898.44
2023-04-20T05:36:59.925Z,100901.88
2023-04-20T05:39:26.976Z,100892.41
2023-04-20T05:41:53.982Z,100893.25
2023-04-20T05:44:21.016Z,100894.97
2023-04-20T05:46:48.053Z,100887.25
2023-04-20T05:49:15.120Z,100903.66
2023-04-20T05:51:42.166Z,100901.13
2023-04-20T05:54:09.987Z,100896.03
2023-04-20T05:56:37.089Z,100907.28
2023-04-20T05:59:05.046Z,100904.75
2023-04-20T06:01:32.261Z,100901.28
2023-04-20T06:03:59.624Z,100901.34
2023-04-20T06:06:26.991Z,100907.38
2023-04-20T06:08:55.229Z,100911.72
2023-04-20T06:11:22.353Z,100908.28
2023-04-20T06:13:49.326Z,100913.50
2023-04-20T06:16:16.451Z,100920.38
2023-04-20T06:18:43.956Z,100917.00
2023-04-20T06:21:11.569Z,100920.44
2023-04-20T06:23:38.698Z,100917.84
2023-04-20T06:26:08.993Z,100921.28
2023-04-20T06:28:36.617Z,100924.69
2023-04-20T06:31:04.589Z,100920.38
2023-04-20T06:33:31.905Z,100933.38
2023-04-20T06:35:59.280Z,100930.84
2023-04-20T06:38:27.829Z,100930.81
2023-04-20T06:40:55.088Z,100936.03
2023-04-20T06:43:22.140Z,100936.03
2023-04-20T06:45:49.175Z,100934.28
2023-04-20T06:48:30.799Z,100932.56
2023-04-20T06:50:59.033Z,100932.53
2023-04-20T06:53:26.430Z,100922.19
2023-04-20T06:55:56.735Z,100918.69
2023-04-20T06:58:23.644Z,100935.13
2023-04-20T07:00:50.668Z,100921.28
2023-04-20T07:03:19.497Z,100923.84
2023-04-20T07:05:46.902Z,100920.34
2023-04-20T07:08:16.163Z,100919.47
2023-04-20T07:10:43.392Z,100923.84
2023-04-20T07:13:10.405Z,100935.91
2023-04-20T07:15:37.829Z,100929.00
2023-04-20T07:18:05.004Z,100932.44
2023-04-20T07:20:32.668Z,100932.44
2023-04-20T07:22:59.768Z,100933.28
2023-04-20T07:25:27.465Z,100934.09
2023-04-20T07:27:54.553Z,100936.66
2023-04-20T07:30:21.758Z,100940.06
2023-04-20T07:32:49.354Z,100945.97
2023-04-20T07:35:16.680Z,100945.81
2023-04-20T07:37:43.748Z,100950.94
2023-04-20T07:40:11.175Z,100946.66
2023-04-20T07:42:38.569Z,100951.94
2023-04-20T07:45:06.994Z,100956.34
2023-04-20T07:47:35.381Z,100958.03
2023-04-20T07:50:03.354Z,100956.31
2023-04-20T07:52:30.792Z,100966.69
2023-04-20T07:54:58.890Z,100954.56
2023-04-20T07:57:26.888Z,100951.16
2023-04-20T07:59:54.140Z,100971.09
2023-04-20T08:02:21.344Z,100970.25
2023-04-20T08:04:50.037Z,100964.22
2023-04-20T08:07:17.958Z,100970.28
2023-04-20T08:09:45.322Z,100976.31
2023-04-20T08:12:12.406Z,100974.56
2023-04-20T08:14:40.700Z,100975.41
2023-04-20T08:17:08.403Z,100971.94
2023-04-20T08:19:35.563Z,100977.09
2023-04-20T08:22:03.467Z,100986.63
2023-04-20T08:24:30.809Z,100981.44
2023-04-20T08:26:59.415Z,100983.13
2023-04-20T08:29:26.723Z,100975.34
2023-04-20T08:31:53.915Z,100965.78
2023-04-20T08:34:20.970Z,100973.44
2023-04-20T08:36:48.142Z,100978.47
2023-04-20T08:39:20.414Z,100968.91
2023-04-20T08:41:48.309Z,100974.88
2023-04-20T08:44:15.694Z,100971.34
2023-04-20T08:46:45.550Z,100973.88
2023-04-20T08:49:13.340Z,100975.38
2023-04-20T08:51:40.692Z,100970.78
2023-04-20T08:54:07.989Z,100967.06
2023-04-20T08:56:39.587Z,100975.56
2023-04-20T08:59:10.236Z,100974.41
2023-04-20T09:01:39.504Z,100959.66
2023-04-20T09:04:24.802Z,100971.81
2023-04-20T09:06:54.543Z,100966.56
2023-04-20T09:09:23.868Z,100964.50
2023-04-20T09:12:05.261Z,100965.88
2023-04-20T09:14:42.999Z,100966.59
2023-04-20T09:17:14.637Z,100959.56
2023-04-20T09:19:44.679Z,100967.09
2023-04-20T09:22:12.043Z,100955.63
2023-04-20T09:24:41.319Z,100970.16
2023-04-20T09:27:19.379Z,100970.03
2023-04-20T09:30:07.965Z,100967.25
2023-04-20T09:32:35.945Z,100966.00
2023-04-20T09:35:03.048Z,100965.53
2023-04-20T09:37:30.776Z,100966.97
2023-04-20T09:40:01.028Z,100969.38
2023-04-20T09:42:29.143Z,100969.22
2023-04-20T09:44:57.542Z,100973.50
2023-04-20T09:47:26.887Z,100974.28
2023-04-20T09:49:54.970Z,100969.72
2023-04-20T09:52:24.362Z,100981.59
2023-04-20T09:54:51.735Z,100977.78
2023-04-20T09:57:19.955Z,100970.66
2023-04-20T09:59:47.573Z,100969.88
2023-04-20T10:02:15.417Z,100961.09
2023-04-20T10:05:12.116Z,100970.63
2023-04-20T10:07:39.319Z,100965.44
2023-04-20T10:10:09.226Z,100967.09
2023-04-20T10:12:56.319Z,100967.97
2023-04-20T10:15:25.128Z,100966.38
2023-04-20T10:17:52.402Z,100963.81
2023-04-20T10:20:19.896Z,100942.91
2023-04-20T10:22:47.235Z,100963.84
2023-04-20T10:25:27.098Z,100968.53
2023-04-20T10:27:59.176Z,100973.16
2023-04-20T10:30:28.030Z,100964.50
2023-04-20T10:33:11.953Z,100962.59
2023-04-20T10:35:56.436Z,100965.00
2023-04-20T10:38:34.136Z,100962.03
2023-04-20T10:41:10.802Z,100961.78
2023-04-20T10:43:43.416Z,100959.16
2023-04-20T10:46:24.523Z,100957.13
2023-04-20T10:48:54.090Z,100951.13
2023-04-20T10:51:21.641Z,100958.28
2023-04-20T10:54:18.638Z,100952.28
2023-04-20T10:56:47.936Z,100944.38
2023-04-20T10:59:17.379Z,100943.47
2023-04-20T11:01:46.764Z,100943.22
2023-04-20T11:04:18.370Z,100945.09
2023-04-20T11:06:48.524Z,100943.53
2023-04-20T11:09:28.605Z,100942.28
2023-04-20T11:12:00.265Z,100945.22
2023-04-20T11:14:27.324Z,100942.47
2023-04-20T11:16:54.601Z,100945.03
2023-04-20T11:19:29.678Z,100940.50
2023-04-20T11:21:57.312Z,100932.25
2023-04-20T11:24:26.850Z,100939.44
2023-04-20T11:26:55.233Z,100925.03
2023-04-20T11:29:35.491Z,100920.22
2023-04-20T11:32:10.446Z,100929.34
2023-04-20T11:34:39.886Z,100926.41
2023-04-20T11:37:10.256Z,100929.78
2023-04-20T11:39:38.081Z,100931.50
2023-04-20T11:42:06.212Z,100941.44
2023-04-20T11:44:34.172Z,100929.72
2023-04-20T11:47:02.051Z,100939.50
2023-04-20T11:49:29.660Z,100924.88
2023-04-20T11:51:56.747Z,100929.59
2023-04-20T11:54:24.550Z,100933.38
2023-04-20T11:56:52.042Z,100932.09
2023-04-20T11:59:20.670Z,100923.00
2023-04-20T12:01:48.466Z,100932.16
2023-04-20T12:04:16.477Z,100933.16
2023-04-20T12:06:45.076Z,100928.50
2023-04-20T12:09:13.561Z,100934.22
2023-04-20T12:11:41.128Z,100921.44
2023-04-20T12:14:08.252Z,100917.34
2023-04-20T12:16:35.332Z,100917.00
2023-04-20T12:19:02.422Z,100922.31
2023-04-20T12:21:29.514Z,100923.94
2023-04-20T12:23:57.855Z,100923.84
2023-04-20T12:26:31.977Z,100922.72
2023-04-20T12:29:04.865Z,100925.03
2023-04-20T12:31:31.976Z,100927.25
2023-04-20T12:33:59.121Z,100927.56
2023-04-20T12:36:26.448Z,100917.94
2023-04-20T12:38:55.645Z,100910.56
2023-04-20T12:41:23.791Z,100913.44
2023-04-20T12:43:51.516Z,100896.31
2023-04-20T12:46:18.842Z,100898.50
2023-04-20T12:48:46.266Z,100897.38
2023-04-20T12:51:14.286Z,100893.59
2023-04-20T12:53:41.833Z,100895.75
2023-04-20T12:56:08.947Z,100889.56
2023-04-20T12:58:36.128Z,100889.47
2023-04-20T13:01:03.880Z,100896.06
2023-04-20T13:03:31.546Z,100894.91
2023-04-20T13:06:00.569Z,100899.50
2023-04-20T13:08:27.790Z,100894.31
2023-04-20T13:10:54.871Z,100888.34
2023-04-20T13:13:21.932Z,100884.44
2023-04-20T13:15:49.180Z,100888.78
2023-04-20T13:18:16.305Z,100900.22
2023-04-20T13:20:43.320Z,100901.09
2023-04-20T13:23:10.378Z,100907.72
2023-04-20T13:25:38.888Z,100909.19
2023-04-20T13:28:06.529Z,100918.47
2023-04-20T13:30:33.642Z,100906.75
2023-04-20T13:33:00.846Z,100901.84
2023-04-20T13:35:27.969Z,100889.84
2023-04-20T13:37:55.287Z,100905.50
2023-04-20T13:40:22.863Z,100895.13
2023-04-20T13:42:49.983Z,100904.59
2023-04-20T13:45:17.619Z,100896.75
2023-04-20T13:47:44.759Z,100900.16
2023-04-20T13:50:12.050Z,100894.94
2023-04-20T13:52:39.173Z,100888.88
2023-04-20T13:55:06.864Z,100894.94
2023-04-20T13:57:33.948Z,100898.47
2023-04-20T14:00:02.114Z,100894.16
2023-04-20T14:02:33.337Z,100894.88
2023-04-20T14:05:00.535Z,100893.81
2023-04-20T14:07:27.602Z,100890.13
2023-04-20T14:09:56.645Z,100884.72
2023-04-20T14:12:24.052Z,100891.44
2023-04-20T14:14:51.225Z,100877.41
2023-04-20T14:17:18.339Z,100879.84
2023-04-20T14:19:45.535Z,100883.97
2023-04-20T14:22:12.610Z,100883.00
2023-04-20T14:24:40.909Z,100876.00
2023-04-20T14:27:08.176Z,100871.63
2023-04-20T14:29:35.230Z,100873.16
2023-04-20T14:32:02.382Z,100874.78
2023-04-20T14:34:29.531Z,100861.69
2023-04-20T14:36:56.850Z,100869.28
2023-04-20T14:39:23.955Z,100863.25
2023-04-20T14:41:51.072Z,100871.97
2023-04-20T14:44:18.382Z,100865.69
2023-04-20T14:46:45.811Z,100861.22
2023-04-20T14:49:12.906Z,100858.41
2023-04-20T14:51:40.000Z,100854.75
2023-04-20T14:54:07.085Z,100856.13
2023-04-20T14:56:34.359Z,100862.19
2023-04-20T14:59:01.689Z,100858.75
2023-04-20T15:01:29.404Z,100860.63
2023-04-20T15:03:56.754Z,100861.66
2023-04-20T15:06:24.079Z,100862.66
2023-04-20T15:08:54.640Z,100869.75
2023-04-20T15:11:21.703Z,100864.66
2023-04-20T15:13:49.636Z,100863.00
2023-04-20T15:16:16.717Z,100863.09
2023-04-20T15:18:43.777Z,100868.41
2023-04-20T15:21:11.175Z,100871.03
2023-04-20T15:23:38.367Z,100865.03
2023-04-20T15:26:06.777Z,100866.81
2023-04-20T15:28:33.864Z,100872.13
2023-04-20T15:31:01.224Z,100873.97
2023-04-20T15:33:28.277Z,100874.06
2023-04-20T15:35:55.584Z,100872.44
2023-04-20T15:38:22.620Z,100872.47
2023-04-20T15:40:51.454Z,100867.34
2023-04-20T15:43:18.537Z,100865.63
2023-04-20T15:45:45.845Z,100871.84
2023-04-20T15:48:12.964Z,100872.78
2023-04-20T15:50:40.103Z,100862.41
2023-04-20T15:53:07.564Z,100868.56
2023-04-20T15:55:38.505Z,100866.06
2023-04-20T15:58:05.567Z,100865.28
2023-04-20T16:00:32.819Z,100869.75
2023-04-20T16:03:01.743Z,100852.63
2023-04-20T16:05:29.200Z,100850.09
2023-04-20T16:07:56.881Z,100861.53
2023-04-20T16:10:24.039Z,100863.38
2023-04-20T16:12:51.223Z,100863.50
2023-04-20T16:15:18.937Z,100860.16
2023-04-20T16:17:46.334Z,100858.44
2023-04-20T16:20:13.899Z,100862.00
2023-04-20T16:22:41.184Z,100863.81
2023-04-20T16:25:09.690Z,100856.88
2023-04-20T16:27:36.951Z,100863.78
2023-04-20T16:30:04.504Z,100854.28
2023-04-20T16:32:31.648Z,100862.88
2023-04-20T16:34:58.849Z,100864.56
2023-04-20T16:37:25.984Z,100851.59
2023-04-20T16:39:53.000Z,100863.66
2023-04-20T16:42:20.092Z,100855.03
2023-04-20T16:44:47.124Z,100855.91
2023-04-20T16:47:14.200Z,100863.72
2023-04-20T16:49:41.309Z,100858.56
2023-04-20T16:52:08.900Z,100869.91
2023-04-20T16:54:36.056Z,100858.63
2023-04-20T16:57:03.880Z,100865.63
2023-04-20T16:59:30.958Z,100863.97
2023-04-20T17:01:58.121Z,100870.06
2023-04-20T17:04:25.434Z,100874.47
2023-04-20T17:06:53.206Z,100870.19
2023-04-20T17:09:20.313Z,100875.44
2023-04-20T17:11:47.352Z,100874.63
2023-04-20T17:14:14.503Z,100879.97
2023-04-20T17:16:41.673Z,100873.09
2023-04-20T17:19:08.818Z,100880.09
2023-04-20T17:21:35.954Z,100874.13
2023-04-20T17:24:03.158Z,100873.41
2023-04-20T17:26:30.220Z,100875.22
2023-04-20T17:28:57.297Z,100883.97
2023-04-20T17:31:24.469Z,100891.06
2023-04-20T17:33:51.580Z,100879.91
2023-04-20T17:36:18.650Z,100879.19
2023-04-20T17:38:45.843Z,100887.91
2023-04-20T17:41:12.983Z,100888.81
2023-04-20T17:43:43.513Z,100894.13
2023-04-20T17:46:10.760Z,100888.97
2023-04-20T17:48:37.912Z,100891.59
2023-04-20T17:51:05.144Z,100889.88
2023-04-20T17:53:32.195Z,100895.09
2023-04-20T17:55:59.234Z,100888.25
2023-04-20T17:58:26.354Z,100885.66
2023-04-20T18:00:53.450Z,100899.56
2023-04-20T18:03:21.361Z,100897.78
2023-04-20T18:05:48.602Z,100901.34
2023-04-20T18:08:17.788Z,100900.53
2023-04-20T18:10:45.054Z,100899.69
2023-04-20T18:13:15.156Z,100909.22
2023-04-20T18:15:42.422Z,100904.06
2023-04-20T18:18:09.483Z,100912.75
2023-04-20T18:20:36.674Z,100912.81
2023-04-20T18:23:03.812Z,100915.41
2023-04-20T18:25:30.905Z,100914.66
2023-04-20T18:27:58.030Z,100918.16
2023-04-20T18:30:25.345Z,100914.78
2023-04-20T18:32:53.933Z,100920.06
2023-04-20T18:35:21.106Z,100924.47
2023-04-20T18:37:48.196Z,100920.19
2023-04-20T18:40:16.459Z,100919.41
2023-04-20T18:42:43.872Z,100920.31
2023-04-20T18:45:13.300Z,100918.69
2023-04-20T18:47:40.532Z,100918.69
2023-04-20T18:50:07.960Z,100923.03
2023-04-20T18:52:35.337Z,100911.06
2023-04-20T18:55:02.619Z,100922.25
2023-04-20T18:57:29.702Z,100930.97
2023-04-20T18:59:56.855Z,100933.59
2023-04-20T19:02:24.098Z,100934.53
2023-04-20T19:04:51.407Z,100925.97
2023-04-20T19:07:18.851Z,100934.63
2023-04-20T19:09:46.010Z,100939.00
2023-04-20T19:12:13.084Z,100933.03
2023-04-20T19:14:40.085Z,100935.63
2023-04-20T19:17:08.060Z,100938.22
2023-04-20T19:19:35.244Z,100928.78
2023-04-20T19:22:03.674Z,100926.25
2023-04-20T19:24:34.502Z,100936.63
2023-04-20T19:27:02.364Z,100931.41
2023-04-20T19:29:29.703Z,100933.22
2023-04-20T19:31:56.892Z,100933.22
2023-04-20T19:34:23.993Z,100936.72
2023-04-20T19:36:51.314Z,100935.03
2023-04-20T19:39:18.483Z,100945.44
2023-04-20T19:41:45.764Z,100940.28
2023-04-20T19:44:14.613Z,100940.34
2023-04-20T19:46:43.620Z,100950.75
2023-04-20T19:49:10.810Z,100942.16
2023-04-20T19:51:37.946Z,100953.41
2023-04-20T19:54:05.351Z,100952.56
2023-04-20T19:56:32.839Z,100940.50
2023-04-20T19:58:59.845Z,100949.16
2023-04-20T20:01:27.179Z,100937.06
2023-04-20T20:03:54.628Z,100949.19
2023-04-20T20:06:22.774Z,100949.19
2023-04-20T20:08:50.103Z,100952.69
2023-04-20T20:11:17.248Z,100951.88
2023-04-20T20:13:44.302Z,100945.81
2023-04-20T20:16:12.399Z,100933.81
2023-04-20T20:18:39.719Z,100945.91
2023-04-20T20:21:06.865Z,100947.63
2023-04-20T20:23:34.008Z,100945.06
2023-04-20T20:26:01.435Z,100932.13
2023-04-20T20:28:29.012Z,100950.28
2023-04-20T20:30:56.447Z,100944.25
2023-04-20T20:33:23.641Z,100947.75
2023-04-20T20:35:51.116Z,100938.25
2023-04-20T20:38:21.056Z,100949.50
2023-04-20T20:40:53.581Z,100944.34
2023-04-20T20:43:21.795Z,100942.59
2023-04-20T20:45:49.053Z,100945.19
2023-04-20T20:48:16.149Z,100952.16
2023-04-20T20:50:43.504Z,100947.84
2023-04-20T20:53:10.583Z,100946.13
2023-04-20T20:55:37.704Z,100952.19
2023-04-20T20:58:04.835Z,100945.28
2023-04-20T21:00:33.577Z,100954.81
2023-04-20T21:03:00.980Z,100947.91
2023-04-20T21:05:28.385Z,100954.81
2023-04-20T21:07:55.548Z,100954.00
2023-04-20T21:10:22.709Z,100952.25
2023-04-20T21:12:49.791Z,100941.03
2023-04-20T21:15:17.004Z,100958.28
2023-04-20T21:17:44.075Z,100953.13
2023-04-20T21:20:11.803Z,100960.06
2023-04-20T21:22:40.070Z,100960.03
2023-04-20T21:25:08.335Z,100968.72
2023-04-20T21:27:35.446Z,100958.34
2023-04-20T21:30:02.751Z,100944.56
2023-04-20T21:32:29.791Z,100954.94
2023-04-20T21:34:57.052Z,100964.41
2023-04-20T21:37:24.128Z,100967.00
2023-04-20T21:39:51.528Z,100958.38
2023-04-20T21:42:18.609Z,100956.66
2023-04-20T21:44:45.669Z,100963.56
2023-04-20T21:47:12.768Z,100954.09
2023-04-20T21:49:39.841Z,100959.28
2023-04-20T21:52:06.922Z,100964.44
2023-04-20T21:54:34.855Z,100954.94
2023-04-20T21:57:02.025Z,100972.19
2023-04-20T21:59:29.212Z,100967.91
2023-04-20T22:01:56.348Z,100964.47
2023-04-20T22:04:27.145Z,100967.03
2023-04-20T22:06:55.658Z,100967.03
2023-04-20T22:09:23.270Z,100964.47
2023-04-20T22:11:50.341Z,100970.53
2023-04-20T22:14:17.869Z,100961.88
2023-04-20T22:16:45.224Z,100973.09
2023-04-20T22:19:12.509Z,100976.56
2023-04-20T22:21:39.696Z,100969.66
2023-04-20T22:24:07.022Z,100961.03
2023-04-20T22:26:34.104Z,100967.06
2023-04-20T22:29:01.274Z,100968.81
2023-04-20T22:31:28.383Z,100977.41
2023-04-20T22:33:55.596Z,100974.84
2023-04-20T22:36:22.685Z,100973.13
2023-04-20T22:38:49.813Z,100973.13
2023-04-20T22:41:17.668Z,100974.84
2023-04-20T22:43:44.911Z,100970.53
2023-04-20T22:46:12.324Z,100970.53
2023-04-20T22:48:40.578Z,100974.84
2023-04-20T22:51:07.755Z,100984.31
2023-04-20T22:53:34.839Z,100985.19
2023-04-20T22:56:06.338Z,100986.06
2023-04-20T22:58:33.432Z,100989.50
2023-04-20T23:01:00.668Z,100977.41
2023-04-20T23:03:28.393Z,100987.78
2023-04-20T23:05:57.734Z,100986.91
2023-04-20T23:08:25.862Z,100984.31
2023-04-20T23:10:55.924Z,100989.50
2023-04-20T23:13:26.492Z,100984.28
2023-04-20T23:15:53.906Z,100980.88
2023-04-20T23:18:21.082Z,100989.47
2023-04-20T23:20:48.202Z,100977.41
2023-04-20T23:23:15.360Z,100978.25
2023-04-20T23:25:42.423Z,100979.13
2023-04-20T23:28:09.580Z,100979.97
2023-04-20T23:30:36.789Z,100984.28
2023-04-20T23:33:04.078Z,100985.16
2023-04-20T23:35:31.249Z,100984.28
2023-04-20T23:37:58.357Z,100979.13
2023-04-20T23:40:26.022Z,100975.66
2023-04-20T23:42:53.158Z,100985.16
2023-04-20T23:45:20.301Z,100979.09
2023-04-20T23:47:47.648Z,100975.66
2023-04-20T23:50:15.036Z,100982.53
2023-04-20T23:52:42.137Z,100984.28
2023-04-20T23:55:10.544Z,100972.19
2023-04-20T23:57:37.683Z,100973.91
